Time;durP1;ratioP1;P1;durP2;ratioP2;P2;SDS_P1;SDS_P2;PMS_P1;PMS_P2;Temp;Humidity;BMP_temperature;BMP_pressure;BME280_temperature;BME280_humidity;BME280_pressure;Samples;Min_cycle;Max_cycle;Signal;HPM_P1;HPM_P2
2023/07/04 00:00:17;;;;;;;;;;;;;;;22.84;28.58;97731.38;4958883;29;1910;-75
2023/07/04 00:02:45;;;;;;;;;;;;;;;22.93;28.53;97741.25;4959118;29;946;-77
2023/07/04 00:05:10;;;;;;;;;;;;;;;22.84;28.47;97742.72;4942383;28;1018;-76
2023/07/04 00:07:36;;;;;;;;;;;;;;;22.71;28.90;97733.47;4942301;29;1140;-76
2023/07/04 00:10:03;;;;;;;;;;;;;;;22.71;29.06;97735.53;4958324;29;1184;-76
2023/07/04 00:12:30;;;;;;;;;;;;;;;22.57;29.15;97736.81;4943033;29;903;-76
2023/07/04 00:14:56;;;;;;;;;;;;;;;22.75;29.05;97728.47;4942576;29;910;-76
2023/07/04 00:17:21;;;;;;;;;;;;;;;22.86;28.65;97731.72;4942978;29;862;-77
2023/07/04 00:19:48;;;;;;;;;;;;;;;22.74;29.09;97731.75;4942422;29;1898;-76
2023/07/04 00:22:13;;;;;;;;;;;;;;;22.70;29.10;97731.91;4942955;29;1169;-76
2023/07/04 00:24:40;;;;;;;;;;;;;;;22.61;29.23;97740.31;4942814;29;1129;-76
2023/07/04 00:27:06;;;;;;;;;;;;;;;22.79;29.07;97734.78;4942712;29;1090;-76
2023/07/04 00:29:32;;;;;;;;;;;;;;;22.73;29.04;97742.31;4910840;29;1318;-76
2023/07/04 00:31:58;;;;;;;;;;;;;;;22.80;29.02;97732.78;4958530;29;1157;-76
2023/07/04 00:34:24;;;;;;;;;;;;;;;22.55;29.25;97742.16;4960868;28;1312;-76
2023/07/04 00:36:50;;;;;;;;;;;;;;;22.55;29.13;97742.16;4958264;29;775;-76
2023/07/04 00:39:17;;;;;;;;;;;;;;;22.76;29.10;97727.22;4942221;29;1984;-75
2023/07/04 00:41:42;;;;;;;;;;;;;;;22.84;29.03;97737.03;4942029;29;825;-76
2023/07/04 00:44:19;;;;;;;;;;;;;;;22.85;28.84;97735.81;4957544;29;928;-76
2023/07/04 00:46:51;;;;;;;;;;;;;;;22.92;28.80;97734.00;4943660;29;972;-76
2023/07/04 00:49:22;;;;;;;;;;;;;;;22.70;28.88;97736.78;4937155;29;1282;-75
2023/07/04 00:51:50;;;;;;;;;;;;;;;22.73;28.93;97741.53;4955048;29;937;-76
2023/07/04 00:54:16;;;;;;;;;;;;;;;22.75;29.03;97741.88;4938101;29;945;-76
2023/07/04 00:56:41;;;;;;;;;;;;;;;22.59;29.07;97742.81;4939130;29;805;-76
2023/07/04 00:59:08;;;;;;;;;;;;;;;22.59;29.15;97742.81;4938575;29;1910;-75
2023/07/04 01:01:34;;;;;;;;;;;;;;;22.74;28.72;97743.09;4938573;29;1864;-75
2023/07/04 01:04:03;;;;;;;;;;;;;;;22.73;28.99;97745.16;4906909;29;1183;-75
2023/07/04 01:06:39;;;;;;;;;;;;;;;22.66;29.08;97742.56;4938881;29;820;-76
2023/07/04 01:09:08;;;;;;;;;;;;;;;22.89;28.53;97744.22;4960801;28;936;-76
2023/07/04 01:11:35;;;;;;;;;;;;;;;22.90;28.74;97739.31;4961353;28;982;-75
2023/07/04 01:14:05;;;;;;;;;;;;;;;22.84;28.81;97739.88;4938284;29;881;-75
2023/07/04 01:16:31;;;;;;;;;;;;;;;22.79;29.00;97746.13;4923357;29;902;-76
2023/07/04 01:18:57;;;;;;;;;;;;;;;22.67;29.12;97743.34;4906760;29;1906;-76
2023/07/04 01:21:24;;;;;;;;;;;;;;;22.55;29.20;97747.81;4922842;29;1204;-76
2023/07/04 01:23:59;;;;;;;;;;;;;;;22.51;29.26;97749.97;4906763;29;775;-76
2023/07/04 01:26:24;;;;;;;;;;;;;;;22.56;29.13;97755.06;4938463;29;852;-76
2023/07/04 01:28:54;;;;;;;;;;;;;;;22.67;28.92;97744.16;4938470;29;913;-75
2023/07/04 01:31:20;;;;;;;;;;;;;;;22.48;29.53;97748.06;4907529;29;1153;-76
2023/07/04 01:33:48;;;;;;;;;;;;;;;22.66;29.07;97756.75;4903690;29;1162;-75
2023/07/04 01:36:15;;;;;;;;;;;;;;;22.92;28.53;97751.03;4919501;29;820;-77
2023/07/04 01:38:41;;;;;;;;;;;;;;;22.81;28.81;97743.66;4903424;29;1205;-76
2023/07/04 01:41:06;;;;;;;;;;;;;;;22.70;29.00;97751.75;4903865;29;1919;-76
2023/07/04 01:43:32;;;;;;;;;;;;;;;22.76;28.74;97734.94;4919081;29;1338;-76
2023/07/04 01:45:59;;;;;;;;;;;;;;;22.69;28.86;97747.34;4969443;28;1004;-76
2023/07/04 01:48:24;;;;;;;;;;;;;;;22.75;28.62;97751.16;4959235;28;909;-76
2023/07/04 01:50:50;;;;;;;;;;;;;;;22.62;29.11;97747.56;4974930;28;1532;-76
2023/07/04 01:53:16;;;;;;;;;;;;;;;22.61;29.14;97746.78;4958432;29;783;-76
2023/07/04 01:55:41;;;;;;;;;;;;;;;22.76;28.72;97768.97;4942156;29;1141;-76
2023/07/04 01:58:07;;;;;;;;;;;;;;;22.52;29.01;97765.75;4958216;29;1117;-76
2023/07/04 02:00:32;;;;;;;;;;;;;;;22.53;29.25;97767.31;4958718;29;1969;-75
2023/07/04 02:02:58;;;;;;;;;;;;;;;22.69;29.00;97769.22;4958461;28;1366;-76
2023/07/04 02:05:24;;;;;;;;;;;;;;;22.67;28.92;97772.50;4958707;29;723;-76
2023/07/04 02:07:49;;;;;;;;;;;;;;;22.74;28.83;97775.13;4958179;29;751;-76
2023/07/04 02:10:15;;;;;;;;;;;;;;;22.64;29.08;97773.44;4959501;28;808;-76
2023/07/04 02:12:41;;;;;;;;;;;;;;;22.46;29.21;97768.38;4974463;28;1191;-76
2023/07/04 02:15:08;;;;;;;;;;;;;;;22.55;28.97;97770.50;4958478;28;1109;-76
2023/07/04 02:17:33;;;;;;;;;;;;;;;22.52;29.23;97772.19;4958378;29;696;-76
2023/07/04 02:19:59;;;;;;;;;;;;;;;22.60;29.14;97772.75;4934913;29;1907;-76
2023/07/04 02:22:24;;;;;;;;;;;;;;;22.67;28.65;97761.16;4935101;29;929;-76
2023/07/04 02:24:50;;;;;;;;;;;;;;;22.82;28.62;97773.59;4918601;29;929;-76
2023/07/04 02:27:16;;;;;;;;;;;;;;;22.60;28.87;97767.88;4918874;29;739;-75
2023/07/04 02:29:42;;;;;;;;;;;;;;;22.79;28.84;97768.84;4904876;29;805;-76
2023/07/04 02:32:07;;;;;;;;;;;;;;;22.85;28.61;97766.22;4922298;29;879;-76
2023/07/04 02:34:33;;;;;;;;;;;;;;;22.74;28.49;97772.28;4937631;29;1247;-76
2023/07/04 02:36:58;;;;;;;;;;;;;;;22.67;28.81;97766.84;4922260;29;752;-76
2023/07/04 02:39:27;;;;;;;;;;;;;;;22.53;29.13;97773.78;4937727;29;1919;-75
2023/07/04 02:41:54;;;;;;;;;;;;;;;22.56;28.97;97766.41;4922248;29;1343;-75
2023/07/04 02:44:19;;;;;;;;;;;;;;;22.63;28.95;97766.94;4938014;29;807;-75
2023/07/04 02:46:46;;;;;;;;;;;;;;;22.76;28.52;97764.09;4938209;29;1313;-76
2023/07/04 02:49:12;;;;;;;;;;;;;;;22.75;28.58;97765.34;4905950;29;1130;-76
2023/07/04 02:51:38;;;;;;;;;;;;;;;22.74;28.35;97760.94;4956451;28;1547;-75
2023/07/04 02:54:03;;;;;;;;;;;;;;;22.87;28.33;97770.19;4944577;29;826;-76
2023/07/04 02:56:31;;;;;;;;;;;;;;;22.79;28.47;97771.66;4930298;29;1331;-76
2023/07/04 02:58:58;;;;;;;;;;;;;;;22.70;28.60;97770.81;4960508;29;1177;-76
2023/07/04 03:01:23;;;;;;;;;;;;;;;22.61;28.80;97774.34;4937954;28;1894;-76
2023/07/04 03:03:50;;;;;;;;;;;;;;;22.37;29.25;97776.75;4980280;28;1275;-75
2023/07/04 03:06:15;;;;;;;;;;;;;;;22.75;28.95;97768.19;4980561;28;1184;-75
2023/07/04 03:08:41;;;;;;;;;;;;;;;22.49;29.15;97778.00;4963923;28;1133;-76
2023/07/04 03:11:06;;;;;;;;;;;;;;;22.43;29.23;97774.94;4963659;28;1719;-77
2023/07/04 03:13:33;;;;;;;;;;;;;;;22.53;29.10;97778.66;4976000;28;1061;-76
2023/07/04 03:15:59;;;;;;;;;;;;;;;22.47;29.35;97772.00;4945411;29;1147;-76
2023/07/04 03:18:26;;;;;;;;;;;;;;;22.36;29.30;97781.63;4960637;28;1276;-76
2023/07/04 03:20:51;;;;;;;;;;;;;;;22.57;29.17;97774.47;4945112;29;1971;-76
2023/07/04 03:23:17;;;;;;;;;;;;;;;22.66;28.68;97773.75;4960716;28;1348;-76
2023/07/04 03:25:43;;;;;;;;;;;;;;;22.73;28.67;97779.19;4976925;28;1132;-76
2023/07/04 03:28:08;;;;;;;;;;;;;;;22.57;29.15;97777.28;4960530;28;1186;-76
2023/07/04 03:30:34;;;;;;;;;;;;;;;22.54;28.93;97780.28;4961023;29;727;-75
2023/07/04 03:33:07;;;;;;;;;;;;;;;22.51;28.99;97775.50;4964544;28;1156;-75
2023/07/04 03:35:34;;;;;;;;;;;;;;;22.59;28.62;97785.38;4924158;29;1702;-76
2023/07/04 03:37:59;;;;;;;;;;;;;;;22.58;29.02;97778.09;4923710;29;1471;-76
2023/07/04 03:40:25;;;;;;;;;;;;;;;22.67;28.87;97781.00;4923672;29;1903;-76
2023/07/04 03:42:50;;;;;;;;;;;;;;;22.56;29.05;97775.72;4892452;29;947;-76
2023/07/04 03:45:16;;;;;;;;;;;;;;;22.53;29.20;97787.97;4939653;29;804;-76
2023/07/04 03:47:42;;;;;;;;;;;;;;;22.66;28.75;97779.44;4924192;29;922;-76
2023/07/04 03:50:08;;;;;;;;;;;;;;;22.61;29.01;97782.84;4923737;29;1272;-76
2023/07/04 03:52:34;;;;;;;;;;;;;;;22.77;28.84;97782.69;4924309;29;748;-79
2023/07/04 03:55:00;;;;;;;;;;;;;;;22.73;28.97;97787.69;4907934;29;1295;-76
2023/07/04 03:57:25;;;;;;;;;;;;;;;22.79;28.91;97788.69;4889375;29;1307;-76
2023/07/04 03:59:51;;;;;;;;;;;;;;;22.77;28.88;97785.53;4893091;29;1902;-76
2023/07/04 04:02:16;;;;;;;;;;;;;;;22.79;28.95;97783.00;4905068;29;1137;-75
2023/07/04 04:04:42;;;;;;;;;;;;;;;22.65;28.96;97786.38;4904701;29;882;-75
2023/07/04 04:07:10;;;;;;;;;;;;;;;22.49;29.21;97789.34;4915760;29;1285;-76
2023/07/04 04:09:36;;;;;;;;;;;;;;;22.81;28.80;97782.56;4886102;29;809;-75
2023/07/04 04:12:01;;;;;;;;;;;;;;;22.57;29.17;97785.00;4886206;29;1159;-75
2023/07/04 04:14:28;;;;;;;;;;;;;;;22.71;29.05;97781.69;4885690;29;816;-78
2023/07/04 04:16:54;;;;;;;;;;;;;;;22.63;29.09;97783.19;4886179;29;945;-76
2023/07/04 04:19:19;;;;;;;;;;;;;;;22.61;28.96;97783.63;4901290;29;1915;-75
2023/07/04 04:21:45;;;;;;;;;;;;;;;22.78;28.88;97800.50;4878017;29;1374;-76
2023/07/04 04:24:10;;;;;;;;;;;;;;;22.88;28.73;97797.31;4919388;29;1360;-77
2023/07/04 04:26:38;;;;;;;;;;;;;;;22.87;28.42;97792.88;4894485;29;1863;-76
2023/07/04 04:29:05;;;;;;;;;;;;;;;22.81;28.60;97788.25;4915692;29;1697;-76
2023/07/04 04:31:30;;;;;;;;;;;;;;;22.40;29.49;97792.09;4923927;29;936;-76
2023/07/04 04:33:56;;;;;;;;;;;;;;;22.43;29.49;97803.28;4907319;29;1069;-75
2023/07/04 04:36:21;;;;;;;;;;;;;;;22.69;29.12;97801.22;4923452;29;768;-76
2023/07/04 04:38:49;;;;;;;;;;;;;;;22.60;29.37;97809.63;4923320;29;895;-75
2023/07/04 04:41:15;;;;;;;;;;;;;;;22.73;29.06;97810.38;4939362;29;1907;-75
2023/07/04 04:43:40;;;;;;;;;;;;;;;22.70;28.84;97810.53;4928841;28;774;-75
2023/07/04 04:46:06;;;;;;;;;;;;;;;22.79;28.95;97814.22;4980405;28;1716;-75
2023/07/04 04:48:35;;;;;;;;;;;;;;;22.82;28.85;97813.31;4980796;28;839;-75
2023/07/04 04:51:07;;;;;;;;;;;;;;;22.82;28.72;97819.00;4982303;28;847;-76
2023/07/04 04:53:39;;;;;;;;;;;;;;;22.91;28.84;97821.16;4980836;28;791;-76
2023/07/04 04:56:05;;;;;;;;;;;;;;;22.71;29.24;97818.56;4982053;28;1061;-76
2023/07/04 04:58:31;;;;;;;;;;;;;;;22.76;29.23;97820.03;4965293;28;1147;-75
2023/07/04 05:00:56;;;;;;;;;;;;;;;22.65;29.45;97828.91;4971006;28;1879;-76
2023/07/04 05:03:22;;;;;;;;;;;;;;;22.63;29.07;97828.56;4990464;28;1293;-75
2023/07/04 05:05:47;;;;;;;;;;;;;;;22.55;29.36;97827.22;4980105;28;1552;-77
2023/07/04 05:08:13;;;;;;;;;;;;;;;22.79;29.00;97831.25;4965956;28;763;-76
2023/07/04 05:10:38;;;;;;;;;;;;;;;22.50;29.51;97830.63;4965805;28;1236;-76
2023/07/04 05:13:04;;;;;;;;;;;;;;;22.48;29.85;97847.28;4981488;28;752;-76
2023/07/04 05:15:29;;;;;;;;;;;;;;;22.75;29.09;97835.47;4949744;28;1193;-76
2023/07/04 05:17:54;;;;;;;;;;;;;;;22.77;28.97;97832.97;4965641;28;1181;-76
2023/07/04 05:20:23;;;;;;;;;;;;;;;22.92;29.11;97848.28;4922781;29;1907;-75
2023/07/04 05:22:49;;;;;;;;;;;;;;;22.66;29.39;97841.84;4905484;29;1547;-76
2023/07/04 05:25:15;;;;;;;;;;;;;;;22.69;29.37;97831.59;4906720;29;833;-76
2023/07/04 05:27:41;;;;;;;;;;;;;;;22.53;29.46;97841.03;4907209;29;1211;-75
2023/07/04 05:30:08;;;;;;;;;;;;;;;22.77;29.35;97839.41;4908242;29;909;-77
2023/07/04 05:32:33;;;;;;;;;;;;;;;22.83;29.15;97846.09;4905513;29;1607;-77
2023/07/04 05:34:59;;;;;;;;;;;;;;;22.82;29.06;97841.69;4905098;29;1052;-76
2023/07/04 05:37:25;;;;;;;;;;;;;;;22.97;28.96;97846.91;4906452;29;855;-76
2023/07/04 05:39:51;;;;;;;;;;;;;;;22.97;28.94;97846.91;4905055;29;1902;-77
2023/07/04 05:42:16;;;;;;;;;;;;;;;22.81;29.26;97848.63;4890680;29;749;-77
2023/07/04 05:44:42;;;;;;;;;;;;;;;22.73;30.53;97847.25;4901085;29;1324;-79
2023/07/04 05:47:07;;;;;;;;;;;;;;;23.18;30.38;97851.81;4926298;29;988;-81
2023/07/04 05:49:33;;;;;;;;;;;;;;;23.24;31.27;97849.97;4847321;29;1512;-79
2023/07/04 05:51:58;;;;;;;;;;;;;;;23.39;30.81;97855.94;4876866;29;1574;-77
2023/07/04 05:54:24;;;;;;;;;;;;;;;23.45;30.63;97853.31;4902316;29;1372;-78
2023/07/04 05:56:53;;;;;;;;;;;;;;;23.64;30.45;97855.06;4901594;29;1408;-78
2023/07/04 05:59:18;;;;;;;;;;;;;;;23.71;30.66;97860.47;4904625;29;1926;-77
2023/07/04 06:01:44;;;;;;;;;;;;;;;23.51;31.25;97862.81;4903503;29;1551;-80
2023/07/04 06:04:10;;;;;;;;;;;;;;;23.67;31.54;97856.97;4916132;29;1310;-80
2023/07/04 06:06:39;;;;;;;;;;;;;;;22.73;33.64;97864.28;4938714;29;1423;-80
2023/07/04 06:09:06;;;;;;;;;;;;;;;22.09;34.47;97874.81;4924486;29;1328;-81
2023/07/04 06:11:33;;;;;;;;;;;;;;;22.31;34.61;97870.09;4923897;29;1449;-83
2023/07/04 06:13:58;;;;;;;;;;;;;;;22.50;34.16;97876.00;4924247;29;997;-82
2023/07/04 06:16:24;;;;;;;;;;;;;;;22.74;33.71;97865.88;4939668;29;1598;-80
2023/07/04 06:18:50;;;;;;;;;;;;;;;22.57;34.00;97876.53;4923922;29;1153;-81
2023/07/04 06:21:16;;;;;;;;;;;;;;;22.75;33.50;97870.31;4951904;28;1919;-80
2023/07/04 06:23:42;;;;;;;;;;;;;;;22.75;33.11;97873.13;4947537;28;882;-81
2023/07/04 06:26:08;;;;;;;;;;;;;;;22.79;33.12;97879.47;4963215;28;1066;-80
2023/07/04 06:28:33;;;;;;;;;;;;;;;22.85;32.82;97880.50;4962075;28;988;-80
2023/07/04 06:30:59;;;;;;;;;;;;;;;22.66;33.34;97878.69;4963094;28;1103;-78
2023/07/04 06:33:26;;;;;;;;;;;;;;;22.77;32.89;97890.47;4982875;28;1171;-78
2023/07/04 06:35:51;;;;;;;;;;;;;;;22.81;32.91;97879.81;4999129;28;1599;-80
2023/07/04 06:38:17;;;;;;;;;;;;;;;22.70;32.87;97879.38;4999518;28;948;-80
2023/07/04 06:40:42;;;;;;;;;;;;;;;22.84;32.69;97876.06;4999730;28;1989;-80
2023/07/04 06:43:08;;;;;;;;;;;;;;;22.48;33.50;97884.13;4999441;28;912;-78
2023/07/04 06:45:34;;;;;;;;;;;;;;;22.50;33.25;97876.00;4997742;28;1833;-78
2023/07/04 06:47:59;;;;;;;;;;;;;;;22.77;33.12;97884.81;4979966;28;873;-70
2023/07/04 06:50:25;;;;;;;;;;;;;;;22.05;35.57;97885.44;4980385;28;915;-80
2023/07/04 06:52:50;;;;;;;;;;;;;;;21.81;35.79;97888.59;4979897;28;897;-79
2023/07/04 06:55:16;;;;;;;;;;;;;;;22.12;35.63;97890.91;4979881;28;1001;-79
2023/07/04 06:57:42;;;;;;;;;;;;;;;22.55;35.91;97895.28;4979821;28;924;-75
2023/07/04 07:00:08;;;;;;;;;;;;;;;22.69;39.07;97897.66;4978862;28;1906;-69
2023/07/04 07:02:33;;;;;;;;;;;;;;;22.86;40.46;97882.06;4997206;28;1960;-79
2023/07/04 07:04:59;;;;;;;;;;;;;;;23.00;38.17;97885.69;4999459;28;825;-81
2023/07/04 07:07:25;;;;;;;;;;;;;;;22.71;37.98;97891.53;4999084;28;980;-81
2023/07/04 07:09:50;;;;;;;;;;;;;;;22.62;37.34;97900.69;4981757;28;933;-81
2023/07/04 07:12:16;;;;;;;;;;;;;;;22.61;36.66;97904.78;4982373;28;902;-82
2023/07/04 07:14:41;;;;;;;;;;;;;;;22.59;35.94;97901.63;4979603;28;1389;-80
2023/07/04 07:17:07;;;;;;;;;;;;;;;22.60;35.49;97903.22;4998558;28;1446;-81
2023/07/04 07:19:32;;;;;;;;;;;;;;;22.21;35.80;97899.56;4982093;28;1965;-81
2023/07/04 07:21:59;;;;;;;;;;;;;;;22.56;34.84;97902.53;4966352;28;1215;-79
2023/07/04 07:24:24;;;;;;;;;;;;;;;22.64;34.32;97903.91;4982607;28;748;-81
2023/07/04 07:26:50;;;;;;;;;;;;;;;22.60;34.21;97897.53;4999750;28;775;-81
2023/07/04 07:29:15;;;;;;;;;;;;;;;22.49;34.49;97897.88;4999803;28;735;-81
2023/07/04 07:31:41;;;;;;;;;;;;;;;22.46;34.21;97906.50;4998467;28;1499;-80
2023/07/04 07:34:06;;;;;;;;;;;;;;;22.26;34.25;97906.69;4999388;28;1011;-80
2023/07/04 07:36:39;;;;;;;;;;;;;;;22.31;35.11;97904.09;4981737;28;863;-71
2023/07/04 07:39:05;;;;;;;;;;;;;;;22.55;34.66;97900.94;4999549;28;823;-81
2023/07/04 07:41:32;;;;;;;;;;;;;;;22.51;34.90;97903.09;4999382;28;1910;-81
2023/07/04 07:43:57;;;;;;;;;;;;;;;22.81;34.97;97899.69;4981555;28;961;-78
2023/07/04 07:46:23;;;;;;;;;;;;;;;23.06;34.48;97906.59;4998910;28;1731;-79
2023/07/04 07:48:49;;;;;;;;;;;;;;;22.85;34.47;97916.59;4981395;28;1232;-80
2023/07/04 07:51:14;;;;;;;;;;;;;;;22.83;34.44;97916.22;4981318;28;910;-79
2023/07/04 07:53:40;;;;;;;;;;;;;;;22.67;34.79;97908.63;4998397;28;943;-78
2023/07/04 07:56:07;;;;;;;;;;;;;;;22.76;35.78;97908.75;4981818;28;834;-81
2023/07/04 07:58:32;;;;;;;;;;;;;;;23.14;34.91;97905.88;4981674;28;742;-81
2023/07/04 08:00:58;;;;;;;;;;;;;;;23.57;35.17;97903.56;4980938;28;1981;-78
2023/07/04 08:03:23;;;;;;;;;;;;;;;23.55;34.60;97914.59;4997823;28;1503;-81
2023/07/04 08:05:49;;;;;;;;;;;;;;;23.87;33.65;97907.78;4981696;28;1089;-79
2023/07/04 08:08:15;;;;;;;;;;;;;;;23.67;34.00;97916.63;4981048;28;879;-79
2023/07/04 08:10:40;;;;;;;;;;;;;;;23.70;33.36;97910.03;4999251;28;922;-80
2023/07/04 08:13:06;;;;;;;;;;;;;;;24.07;32.72;97918.81;5002010;28;1443;-82
2023/07/04 08:15:32;;;;;;;;;;;;;;;23.79;33.22;97912.94;4977906;28;1025;-87
2023/07/04 08:18:02;;;;;;;;;;;;;;;23.71;32.97;97917.28;4952923;29;962;-83
2023/07/04 08:20:27;;;;;;;;;;;;;;;23.62;33.21;97914.34;4942583;29;1895;-77
2023/07/04 08:22:53;;;;;;;;;;;;;;;23.74;32.78;97915.59;4919285;29;1090;-81
2023/07/04 08:25:20;;;;;;;;;;;;;;;23.79;33.37;97921.47;4903796;29;1037;-77
2023/07/04 08:27:45;;;;;;;;;;;;;;;23.56;33.53;97916.19;4886514;29;995;-78
2023/07/04 08:30:11;;;;;;;;;;;;;;;24.03;32.56;97915.28;4919864;29;1262;-78
2023/07/04 08:32:36;;;;;;;;;;;;;;;23.98;32.83;97924.41;4937932;29;1001;-79
2023/07/04 08:35:03;;;;;;;;;;;;;;;23.91;32.81;97926.28;4938235;29;1409;-77
2023/07/04 08:37:28;;;;;;;;;;;;;;;24.01;32.70;97918.63;4937491;29;914;-78
2023/07/04 08:39:55;;;;;;;;;;;;;;;24.28;32.02;97912.28;4937492;29;1898;-76
2023/07/04 08:42:21;;;;;;;;;;;;;;;24.24;31.84;97917.31;4917934;29;1487;-76
2023/07/04 08:44:47;;;;;;;;;;;;;;;23.96;32.50;97921.25;4902919;29;964;-77
2023/07/04 08:47:16;;;;;;;;;;;;;;;24.00;32.42;97921.94;4903414;29;928;-77
2023/07/04 08:49:42;;;;;;;;;;;;;;;23.93;32.57;97920.13;4950124;28;957;-77
2023/07/04 08:52:15;;;;;;;;;;;;;;;24.08;32.12;97914.69;4961468;28;1421;-77
2023/07/04 08:54:40;;;;;;;;;;;;;;;23.99;31.88;97921.13;4944241;28;1143;-74
2023/07/04 08:57:11;;;;;;;;;;;;;;;23.87;31.92;97925.63;4977555;28;1038;-75
2023/07/04 08:59:41;;;;;;;;;;;;;;;23.72;32.12;97924.56;4959932;28;1926;-75
2023/07/04 09:02:06;;;;;;;;;;;;;;;23.75;32.13;97923.63;4972632;28;1581;-76
2023/07/04 09:04:46;;;;;;;;;;;;;;;23.67;31.96;97922.31;4960180;28;1674;-75
2023/07/04 09:07:26;;;;;;;;;;;;;;;23.90;31.49;97921.84;4977712;28;1090;-74
2023/07/04 09:10:01;;;;;;;;;;;;;;;23.61;31.55;97926.97;4959797;28;908;-75
2023/07/04 09:12:28;;;;;;;;;;;;;;;23.69;31.47;97928.34;4995126;28;1351;-74
2023/07/04 09:14:58;;;;;;;;;;;;;;;23.63;31.74;97915.97;4979443;28;1016;-75
2023/07/04 09:17:32;;;;;;;;;;;;;;;23.48;32.10;97932.69;4963013;28;1101;-74
2023/07/04 09:19:58;;;;;;;;;;;;;;;23.33;31.96;97926.72;4958245;28;1987;-74
2023/07/04 09:22:23;;;;;;;;;;;;;;;23.69;31.48;97924.69;4959980;28;930;-74
2023/07/04 09:24:49;;;;;;;;;;;;;;;23.47;31.56;97919.75;4959543;28;1187;-74
2023/07/04 09:27:15;;;;;;;;;;;;;;;23.59;31.67;97933.09;4960332;28;979;-75
2023/07/04 09:29:40;;;;;;;;;;;;;;;23.69;31.20;97931.16;4968752;28;1483;-74
2023/07/04 09:32:06;;;;;;;;;;;;;;;23.72;30.99;97926.59;4978666;28;965;-73
2023/07/04 09:34:35;;;;;;;;;;;;;;;23.84;30.92;97929.41;4962697;28;1200;-75
2023/07/04 09:37:01;;;;;;;;;;;;;;;23.65;31.30;97930.50;4978779;28;938;-74
2023/07/04 09:39:45;;;;;;;;;;;;;;;23.90;30.79;97938.91;4980848;28;1923;-75
2023/07/04 09:42:11;;;;;;;;;;;;;;;23.58;31.29;97939.25;4966842;28;1484;-74
2023/07/04 09:44:37;;;;;;;;;;;;;;;23.47;31.38;97930.31;4966206;28;1045;-74
2023/07/04 09:47:04;;;;;;;;;;;;;;;23.52;31.46;97950.41;4982609;28;970;-76
2023/07/04 09:49:35;;;;;;;;;;;;;;;23.57;31.38;97929.13;4939027;29;1485;-75
2023/07/04 09:52:01;;;;;;;;;;;;;;;23.75;30.93;97923.63;4939608;29;1042;-74
2023/07/04 09:54:26;;;;;;;;;;;;;;;23.49;31.37;97933.50;4939781;29;1076;-75
2023/07/04 09:56:52;;;;;;;;;;;;;;;23.71;30.79;97925.81;4923632;29;961;-73
2023/07/04 09:59:18;;;;;;;;;;;;;;;23.69;30.80;97919.81;4906963;29;1907;-76
2023/07/04 10:01:44;;;;;;;;;;;;;;;23.73;30.93;97920.47;4923703;29;920;-74
2023/07/04 10:04:09;;;;;;;;;;;;;;;23.62;31.10;97920.03;4939389;29;1288;-74
2023/07/04 10:06:36;;;;;;;;;;;;;;;23.35;31.49;97907.16;4920424;29;1149;-74
2023/07/04 10:09:05;;;;;;;;;;;;;;;23.18;31.67;97911.44;4920038;29;1370;-75
2023/07/04 10:11:34;;;;;;;;;;;;;;;23.46;31.27;97912.47;4919234;29;1508;-75
2023/07/04 10:14:01;;;;;;;;;;;;;;;23.77;30.92;97921.13;4901274;29;1457;-75
2023/07/04 10:16:27;;;;;;;;;;;;;;;23.57;31.13;97929.13;4917009;29;2089;-75
2023/07/04 10:19:01;;;;;;;;;;;;;;;23.31;31.64;97917.88;4901584;29;996;-75
2023/07/04 10:21:26;;;;;;;;;;;;;;;23.73;30.85;97914.78;4957464;28;1911;-75
2023/07/04 10:23:52;;;;;;;;;;;;;;;23.79;30.50;97918.63;4977702;28;1129;-75
2023/07/04 10:26:17;;;;;;;;;;;;;;;23.68;30.95;97918.22;4978073;28;936;-75
2023/07/04 10:28:43;;;;;;;;;;;;;;;23.71;30.74;97900.25;4961521;28;1033;-75
2023/07/04 10:31:12;;;;;;;;;;;;;;;23.63;31.05;97913.13;4977610;28;1526;-75
2023/07/04 10:34:04;;;;;;;;;;;;;;;23.72;30.98;97913.19;4945135;28;1308;-75
2023/07/04 10:36:31;;;;;;;;;;;;;;;23.70;30.87;97898.66;4942401;29;1100;-76
2023/07/04 10:38:59;;;;;;;;;;;;;;;23.47;31.22;97901.94;4926397;29;1139;-74
2023/07/04 10:41:24;;;;;;;;;;;;;;;23.71;30.84;97905.13;4922086;29;1916;-75
2023/07/04 10:43:51;;;;;;;;;;;;;;;23.70;30.56;97915.72;4939083;29;967;-76
2023/07/04 10:46:18;;;;;;;;;;;;;;;23.58;30.83;97910.84;4922992;29;1212;-74
2023/07/04 10:48:45;;;;;;;;;;;;;;;23.57;31.00;97912.09;4922662;29;1066;-76
2023/07/04 10:51:23;;;;;;;;;;;;;;;23.65;31.02;97914.25;4921441;29;1388;-75
2023/07/04 10:53:48;;;;;;;;;;;;;;;23.47;31.41;97907.59;4922617;29;1290;-75
2023/07/04 10:56:33;;;;;;;;;;;;;;;23.45;31.23;97905.22;4923129;29;997;-76
2023/07/04 10:59:14;;;;;;;;;;;;;;;23.63;30.74;97907.47;4922673;29;965;-75
2023/07/04 11:01:41;;;;;;;;;;;;;;;23.88;30.35;97895.97;4917956;29;1976;-76
2023/07/04 11:04:10;;;;;;;;;;;;;;;23.60;30.91;97906.28;4919816;29;1460;-74
2023/07/04 11:06:40;;;;;;;;;;;;;;;23.34;31.29;97899.91;4919850;29;1045;-74
2023/07/04 11:09:07;;;;;;;;;;;;;;;23.39;31.52;97902.16;4919367;29;1017;-75
2023/07/04 11:11:32;;;;;;;;;;;;;;;23.71;30.88;97899.44;4905949;29;1567;-75
2023/07/04 11:14:00;;;;;;;;;;;;;;;23.48;31.28;97892.16;4952572;28;1020;-76
2023/07/04 11:16:31;;;;;;;;;;;;;;;23.73;30.72;97897.75;4945177;28;1040;-75
2023/07/04 11:19:18;;;;;;;;;;;;;;;23.63;31.01;97887.56;4945149;28;1220;-75
2023/07/04 11:22:05;;;;;;;;;;;;;;;23.65;30.77;97890.72;4918590;29;2053;-75
2023/07/04 11:24:34;;;;;;;;;;;;;;;23.52;31.14;97889.97;4918805;29;1360;-75
2023/07/04 11:27:15;;;;;;;;;;;;;;;23.49;31.13;97890.91;4903419;29;1354;-75
2023/07/04 11:29:52;;;;;;;;;;;;;;;23.26;31.49;97889.25;4900286;29;1212;-75
2023/07/04 11:32:25;;;;;;;;;;;;;;;23.61;31.03;97892.88;4883744;29;1452;-75
2023/07/04 11:35:13;;;;;;;;;;;;;;;23.64;31.01;97884.25;4884248;29;1090;-75
2023/07/04 11:37:53;;;;;;;;;;;;;;;23.38;31.51;97885.59;4884571;29;1098;-75
2023/07/04 11:40:21;;;;;;;;;;;;;;;23.55;31.07;97889.03;4884387;29;1899;-75
2023/07/04 11:42:48;;;;;;;;;;;;;;;23.69;30.87;97901.97;4877322;29;1362;-76
2023/07/04 11:45:14;;;;;;;;;;;;;;;23.51;30.96;97886.31;4847262;29;1018;-75
2023/07/04 11:47:43;;;;;;;;;;;;;;;23.65;30.60;97879.38;4847288;29;1139;-75
2023/07/04 11:50:10;;;;;;;;;;;;;;;23.73;30.47;97880.72;4862454;29;1119;-75
2023/07/04 11:52:37;;;;;;;;;;;;;;;23.62;30.76;97880.25;4858839;29;1453;-75
2023/07/04 11:55:07;;;;;;;;;;;;;;;23.59;30.96;97876.31;4859180;29;966;-76
2023/07/04 11:57:51;;;;;;;;;;;;;;;23.56;31.07;97882.09;4844400;29;1282;-74
2023/07/04 12:00:30;;;;;;;;;;;;;;;23.64;30.72;97877.78;4924606;29;1985;-75
2023/07/04 12:02:55;;;;;;;;;;;;;;;23.75;30.63;97872.50;4937247;29;1501;-75
2023/07/04 12:05:28;;;;;;;;;;;;;;;23.69;30.79;97879.25;4937693;29;974;-75
2023/07/04 12:07:59;;;;;;;;;;;;;;;23.62;30.79;97878.22;4937505;29;940;-75
2023/07/04 12:10:25;;;;;;;;;;;;;;;23.74;30.51;97876.59;4936664;29;1151;-75
2023/07/04 12:12:56;;;;;;;;;;;;;;;23.69;30.62;97868.69;4898564;29;1469;-74
2023/07/04 12:15:28;;;;;;;;;;;;;;;23.67;30.87;97868.31;4883964;29;1143;-75
2023/07/04 12:17:58;;;;;;;;;;;;;;;23.52;31.19;97867.22;4883875;29;1135;-75
2023/07/04 12:20:24;;;;;;;;;;;;;;;23.70;30.88;97869.47;4899699;29;1971;-75
2023/07/04 12:22:53;;;;;;;;;;;;;;;23.79;30.50;97864.66;4883340;29;1432;-75
2023/07/04 12:25:22;;;;;;;;;;;;;;;23.34;31.25;97860.16;4875957;29;944;-75
2023/07/04 12:27:48;;;;;;;;;;;;;;;23.30;31.22;97873.69;4905248;29;1227;-75
2023/07/04 12:30:13;;;;;;;;;;;;;;;23.71;30.60;97871.03;4921234;29;963;-74
2023/07/04 12:32:39;;;;;;;;;;;;;;;23.49;30.87;97871.00;4936492;29;1448;-75
2023/07/04 12:35:06;;;;;;;;;;;;;;;23.65;30.63;97873.69;4921165;29;1236;-75
2023/07/04 12:37:39;;;;;;;;;;;;;;;23.73;30.33;97880.72;4905503;29;943;-75
2023/07/04 12:40:05;;;;;;;;;;;;;;;23.92;30.34;97878.75;4936779;29;1973;-75
2023/07/04 12:42:31;;;;;;;;;;;;;;;23.67;30.34;97876.84;4919432;29;1369;-75
2023/07/04 12:44:57;;;;;;;;;;;;;;;23.74;30.35;97875.81;4977283;28;1551;-74
2023/07/04 12:47:26;;;;;;;;;;;;;;;23.83;30.11;97879.50;4996728;28;884;-75
2023/07/04 12:49:53;;;;;;;;;;;;;;;23.63;30.78;97874.16;4979624;28;968;-75
2023/07/04 12:52:18;;;;;;;;;;;;;;;23.64;30.65;97872.13;4930513;29;1368;-75
2023/07/04 12:54:44;;;;;;;;;;;;;;;23.61;30.48;97878.66;4936696;29;1038;-75
2023/07/04 12:57:11;;;;;;;;;;;;;;;23.42;31.08;97883.44;4921070;29;1110;-75
2023/07/04 12:59:38;;;;;;;;;;;;;;;23.78;30.48;97877.28;4936647;29;1967;-74